createdAt,value
2018-06-27T00:00:18.514Z,14.09
2018-06-27T00:01:18.531Z,14.09
2018-06-27T00:03:11.482Z,14.04
2018-06-27T00:04:11.485Z,13.99
2018-06-27T00:06:04.426Z,14.07
2018-06-27T00:07:04.439Z,14.04
2018-06-27T00:08:57.905Z,13.95
2018-06-27T00:09:57.906Z,13.99
2018-06-27T00:11:52.394Z,14.00
2018-06-27T00:12:52.397Z,13.96
2018-06-27T00:14:45.327Z,13.92
2018-06-27T00:15:45.352Z,13.95
2018-06-27T00:17:38.301Z,13.96
2018-06-27T00:18:38.304Z,13.92
2018-06-27T00:20:31.261Z,13.92
2018-06-27T00:21:31.258Z,13.89
2018-06-27T00:23:24.722Z,13.84
2018-06-27T00:24:24.725Z,13.85
2018-06-27T00:26:17.664Z,13.85
2018-06-27T00:27:17.677Z,13.77
2018-06-27T00:29:10.629Z,13.82
2018-06-27T00:30:10.632Z,13.79
2018-06-27T00:32:03.584Z,13.77
2018-06-27T00:33:03.589Z,13.77
2018-06-27T00:34:56.518Z,13.82
2018-06-27T00:35:56.540Z,13.73
2018-06-27T00:37:49.490Z,13.75
2018-06-27T00:38:49.492Z,13.77
2018-06-27T00:40:42.433Z,13.69
2018-06-27T00:41:42.448Z,13.71
2018-06-27T00:43:35.402Z,13.71
2018-06-27T00:44:35.403Z,13.64
2018-06-27T00:46:28.311Z,13.64
2018-06-27T00:47:28.333Z,13.57
2018-06-27T00:49:21.308Z,13.64
2018-06-27T00:50:21.310Z,13.59
2018-06-27T00:52:14.251Z,13.57
2018-06-27T00:53:14.266Z,13.62
2018-06-27T00:55:07.215Z,13.57
2018-06-27T00:56:07.217Z,13.59
2018-06-27T00:58:00.169Z,13.59
2018-06-27T00:59:00.173Z,13.51
2018-06-27T01:00:53.103Z,13.46
2018-06-27T01:01:53.127Z,13.41
2018-06-27T01:03:46.077Z,13.42
2018-06-27T01:04:46.079Z,13.39
2018-06-27T01:06:39.525Z,13.36
2018-06-27T01:07:39.546Z,13.36
2018-06-27T01:09:32.499Z,13.46
2018-06-27T01:10:32.539Z,13.39
2018-06-27T01:12:25.439Z,13.42
2018-06-27T01:13:25.455Z,13.32
2018-06-27T01:15:18.406Z,13.30
2018-06-27T01:16:18.409Z,13.20
2018-06-27T01:18:11.359Z,13.15
2018-06-27T01:19:11.361Z,13.15
2018-06-27T01:21:04.314Z,13.00
2018-06-27T01:22:04.321Z,13.00
2018-06-27T01:23:57.269Z,13.07
2018-06-27T01:24:57.272Z,13.01
2018-06-27T01:26:50.213Z,13.01
2018-06-27T01:27:50.224Z,12.93
2018-06-27T01:29:43.177Z,12.86
2018-06-27T01:30:43.181Z,12.83
2018-06-27T01:32:36.117Z,12.90
2018-06-27T01:33:36.133Z,12.89
2018-06-27T01:35:29.083Z,12.89
2018-06-27T01:36:29.087Z,12.87
2018-06-27T01:38:22.025Z,12.95
2018-06-27T01:39:22.041Z,12.87
2018-06-27T01:41:14.993Z,12.89
2018-06-27T01:42:14.994Z,12.90
2018-06-27T01:44:07.954Z,12.89
2018-06-27T01:45:07.951Z,12.95
2018-06-27T01:47:00.888Z,12.95
2018-06-27T01:48:00.909Z,12.85
2018-06-27T01:49:53.857Z,12.83
2018-06-27T01:50:53.859Z,12.78
2018-06-27T01:52:46.799Z,12.79
2018-06-27T01:53:46.813Z,12.77
2018-06-27T01:55:39.764Z,12.79
2018-06-27T01:56:39.767Z,12.78
2018-06-27T01:58:32.699Z,12.83
2018-06-27T01:59:32.721Z,12.77
2018-06-27T02:01:25.676Z,12.78
2018-06-27T02:02:25.675Z,12.77
2018-06-27T02:04:18.613Z,12.79
2018-06-27T02:05:18.629Z,12.79
2018-06-27T02:07:12.094Z,12.77
2018-06-27T02:08:12.095Z,12.72
2018-06-27T02:10:05.046Z,12.74
2018-06-27T02:11:05.049Z,12.77
2018-06-27T02:12:57.987Z,12.79
2018-06-27T02:13:58.002Z,12.82
2018-06-27T02:15:50.956Z,12.77
2018-06-27T02:16:50.957Z,12.74
2018-06-27T02:18:43.896Z,12.67
2018-06-27T02:19:43.915Z,12.68
2018-06-27T02:21:38.400Z,12.60
2018-06-27T02:22:38.403Z,12.65
2018-06-27T02:24:31.333Z,12.60
2018-06-27T02:25:31.361Z,12.59
2018-06-27T02:27:24.837Z,12.64
2018-06-27T02:28:24.825Z,12.49
2018-06-27T02:30:17.772Z,12.49
2018-06-27T02:31:17.774Z,12.53
2018-06-27T02:33:10.726Z,12.50
2018-06-27T02:34:10.729Z,12.45
2018-06-27T02:36:03.681Z,12.47
2018-06-27T02:37:03.685Z,12.41
2018-06-27T02:38:56.621Z,12.42
2018-06-27T02:39:56.637Z,12.41
2018-06-27T02:41:50.101Z,12.49
2018-06-27T02:42:50.104Z,12.49
2018-06-27T02:44:43.041Z,12.42
2018-06-27T02:45:43.057Z,12.45
2018-06-27T02:47:36.009Z,12.54
2018-06-27T02:48:36.011Z,12.50
2018-06-27T02:50:28.949Z,12.59
2018-06-27T02:51:28.964Z,12.54
2018-06-27T02:53:21.926Z,12.53
2018-06-27T02:54:21.929Z,12.50
2018-06-27T02:56:14.872Z,12.50
2018-06-27T02:57:14.874Z,12.45
2018-06-27T02:59:07.814Z,12.50
2018-06-27T03:00:07.828Z,12.47
2018-06-27T03:02:00.781Z,12.47
2018-06-27T03:03:00.785Z,12.47
2018-06-27T03:04:54.227Z,12.41
2018-06-27T03:05:54.249Z,12.42
2018-06-27T03:07:47.715Z,12.39
2018-06-27T03:08:47.714Z,12.39
2018-06-27T03:10:48.123Z,12.42
2018-06-27T03:11:48.147Z,12.42
2018-06-27T03:13:41.094Z,12.29
2018-06-27T03:14:41.096Z,12.31
2018-06-27T03:16:34.052Z,12.29
2018-06-27T03:17:34.054Z,12.32
2018-06-27T03:19:26.989Z,12.28
2018-06-27T03:20:27.063Z,12.32
2018-06-27T03:22:20.473Z,12.32
2018-06-27T03:23:20.472Z,12.32
2018-06-27T03:25:13.405Z,12.21
2018-06-27T03:26:13.427Z,12.24
2018-06-27T03:28:06.386Z,12.14
2018-06-27T03:29:06.381Z,12.32
2018-06-27T03:30:59.320Z,12.29
2018-06-27T03:31:59.335Z,12.27
2018-06-27T03:33:52.291Z,12.27
2018-06-27T03:34:52.288Z,12.28
2018-06-27T03:36:45.243Z,12.27
2018-06-27T03:37:45.243Z,12.37
2018-06-27T03:39:38.181Z,12.45
2018-06-27T03:40:38.197Z,12.46
2018-06-27T03:42:32.692Z,12.64
2018-06-27T03:43:32.690Z,12.60
2018-06-27T03:45:25.620Z,12.64
2018-06-27T03:46:25.645Z,12.74
2018-06-27T03:48:18.603Z,12.85
2018-06-27T03:49:18.596Z,12.90
2018-06-27T03:51:11.534Z,13.07
2018-06-27T03:52:11.550Z,13.04
2018-06-27T03:54:04.502Z,13.12
2018-06-27T03:55:04.503Z,13.28
2018-06-27T03:56:57.446Z,13.55
2018-06-27T03:57:57.460Z,13.66
2018-06-27T03:59:50.411Z,13.79
2018-06-27T04:00:50.413Z,13.87
2018-06-27T04:02:43.367Z,14.04
2018-06-27T04:03:43.367Z,14.25
2018-06-27T04:05:36.300Z,14.36
2018-06-27T04:06:36.321Z,14.42
2018-06-27T04:08:29.273Z,14.61
2018-06-27T04:09:29.276Z,14.72
2018-06-27T04:11:22.207Z,14.95
2018-06-27T04:12:22.231Z,15.20
2018-06-27T04:14:15.694Z,15.36
2018-06-27T04:15:15.700Z,15.59
2018-06-27T04:17:08.630Z,15.84
2018-06-27T04:18:08.653Z,16.02
2018-06-27T04:20:01.616Z,16.38
2018-06-27T04:21:01.609Z,16.45
2018-06-27T04:22:54.567Z,16.94
2018-06-27T04:23:54.562Z,17.12
2018-06-27T04:25:47.492Z,17.55
2018-06-27T04:26:47.517Z,17.75
2018-06-27T04:28:40.977Z,18.11
2018-06-27T04:29:40.983Z,18.42
2018-06-27T04:31:33.915Z,18.66
2018-06-27T04:32:33.942Z,18.67
2018-06-27T04:34:26.886Z,18.92
2018-06-27T04:35:26.917Z,19.11
2018-06-27T04:37:19.827Z,19.26
2018-06-27T04:38:19.849Z,19.51
2018-06-27T04:40:12.798Z,19.78
2018-06-27T04:41:12.804Z,19.92
2018-06-27T04:43:05.766Z,19.92
2018-06-27T04:44:05.757Z,19.96
2018-06-27T04:45:58.706Z,20.11
2018-06-27T04:46:58.712Z,20.26
2018-06-27T04:48:51.659Z,20.59
2018-06-27T04:49:51.665Z,20.84
2018-06-27T04:51:44.595Z,21.19
2018-06-27T04:52:44.621Z,21.24
2018-06-27T04:54:37.567Z,21.59
2018-06-27T04:55:37.575Z,21.88
2018-06-27T04:57:30.507Z,22.03
2018-06-27T04:58:30.529Z,22.15
2018-06-27T05:00:23.477Z,22.28
2018-06-27T05:01:23.483Z,22.39
2018-06-27T05:03:16.515Z,22.97
2018-06-27T05:04:16.542Z,23.15
2018-06-27T05:06:09.590Z,23.50
2018-06-27T05:07:09.600Z,23.70
2018-06-27T05:09:02.655Z,23.83
2018-06-27T05:10:02.664Z,24.08
2018-06-27T05:11:55.685Z,24.16
2018-06-27T05:12:55.717Z,24.46
2018-06-27T05:14:48.761Z,24.65
2018-06-27T05:15:48.769Z,24.83
2018-06-27T05:17:41.797Z,24.96
2018-06-27T05:18:41.827Z,25.03
2018-06-27T05:20:34.876Z,25.33
2018-06-27T05:21:34.887Z,25.47
2018-06-27T05:23:27.914Z,25.98
2018-06-27T05:24:27.945Z,26.06
2018-06-27T05:26:21.499Z,26.40
2018-06-27T05:27:21.578Z,26.07
2018-06-27T05:29:14.536Z,25.70
2018-06-27T05:30:14.567Z,25.75
2018-06-27T05:32:09.050Z,25.58
2018-06-27T05:33:09.060Z,25.42
2018-06-27T05:35:02.109Z,24.91
2018-06-27T05:36:02.119Z,24.69
2018-06-27T05:37:55.141Z,24.46
2018-06-27T05:38:55.174Z,24.39
2018-06-27T05:40:48.216Z,24.46
2018-06-27T05:41:48.228Z,24.47
2018-06-27T05:43:41.253Z,24.61
2018-06-27T05:44:41.285Z,24.43
2018-06-27T05:46:34.331Z,24.37
2018-06-27T05:47:34.342Z,24.45
2018-06-27T05:49:27.368Z,24.60
2018-06-27T05:50:27.400Z,24.69
2018-06-27T05:52:20.444Z,24.76
2018-06-27T05:53:20.458Z,24.60
2018-06-27T05:55:13.499Z,24.53
2018-06-27T05:56:13.513Z,24.71
2018-06-27T05:58:06.577Z,24.95
2018-06-27T05:59:06.568Z,25.10
2018-06-27T06:00:59.613Z,25.13
2018-06-27T06:01:59.625Z,25.06
2018-06-27T06:03:52.653Z,24.95
2018-06-27T06:04:52.685Z,24.61
2018-06-27T06:06:45.726Z,24.39
2018-06-27T06:07:45.740Z,24.30
2018-06-27T06:09:38.765Z,24.42
2018-06-27T06:10:38.796Z,24.43
2018-06-27T06:12:31.840Z,24.47
2018-06-27T06:13:31.854Z,24.27
2018-06-27T06:15:24.896Z,24.25
2018-06-27T06:16:24.908Z,24.32
2018-06-27T06:18:17.934Z,24.61
2018-06-27T06:19:17.966Z,24.67
2018-06-27T06:21:11.008Z,24.77
2018-06-27T06:22:11.022Z,24.80
2018-06-27T06:24:04.046Z,25.15
2018-06-27T06:25:04.080Z,25.10
2018-06-27T06:26:57.124Z,25.25
2018-06-27T06:27:57.138Z,25.25
2018-06-27T06:29:50.162Z,25.09
2018-06-27T06:30:50.195Z,25.10
2018-06-27T06:32:43.236Z,24.91
2018-06-27T06:33:43.250Z,24.61
2018-06-27T06:35:36.305Z,24.62
2018-06-27T06:36:36.309Z,24.71
2018-06-27T06:38:29.331Z,24.67
2018-06-27T06:39:29.365Z,24.67
2018-06-27T06:41:22.406Z,24.87
2018-06-27T06:42:22.420Z,24.87
2018-06-27T06:44:15.446Z,24.80
2018-06-27T06:45:15.478Z,24.77
2018-06-27T06:47:09.441Z,24.73
2018-06-27T06:48:09.456Z,24.77
2018-06-27T06:50:02.480Z,24.87
2018-06-27T06:51:02.513Z,24.95
2018-06-27T06:52:55.557Z,25.21
2018-06-27T06:53:55.571Z,25.33
2018-06-27T06:55:48.592Z,25.50
2018-06-27T06:56:48.624Z,25.58
2018-06-27T06:58:41.675Z,25.60
2018-06-27T06:59:41.684Z,25.61
2018-06-27T07:01:34.728Z,25.65
2018-06-27T07:02:34.743Z,25.54
2018-06-27T07:04:28.282Z,25.25
2018-06-27T07:05:28.313Z,25.18
2018-06-27T07:07:21.351Z,24.71
2018-06-27T07:08:21.366Z,24.67
2018-06-27T07:10:14.900Z,24.50
2018-06-27T07:11:15.116Z,24.57
2018-06-27T07:13:07.975Z,24.32
2018-06-27T07:14:07.991Z,24.16
2018-06-27T07:16:01.013Z,24.21
2018-06-27T07:17:01.046Z,24.22
2018-06-27T07:18:54.088Z,23.78
2018-06-27T07:19:54.104Z,23.75
2018-06-27T07:21:54.624Z,23.66
2018-06-27T07:22:54.638Z,23.69
2018-06-27T07:24:47.658Z,23.76
2018-06-27T07:25:47.695Z,23.91
2018-06-27T07:27:40.734Z,24.13
2018-06-27T07:28:40.870Z,24.05
2018-06-27T07:30:34.288Z,24.34
2018-06-27T07:31:34.317Z,24.27
2018-06-27T07:33:27.273Z,24.03
2018-06-27T07:34:27.285Z,23.91
2018-06-27T07:36:20.294Z,23.76
2018-06-27T07:37:20.328Z,23.70
2018-06-27T07:39:13.371Z,23.60
2018-06-27T07:40:13.384Z,23.68
2018-06-27T07:42:06.426Z,23.46
2018-06-27T07:43:06.437Z,23.43
2018-06-27T07:44:59.873Z,23.58
2018-06-27T07:45:59.905Z,23.61
2018-06-27T07:47:52.945Z,23.65
2018-06-27T07:48:52.956Z,23.55
2018-06-27T07:50:45.985Z,23.40
2018-06-27T07:51:46.013Z,23.42
2018-06-27T07:53:39.061Z,23.43
2018-06-27T07:54:39.073Z,23.48
2018-06-27T07:56:32.097Z,23.39
2018-06-27T07:57:32.132Z,23.31
2018-06-27T07:59:25.195Z,23.36
2018-06-27T08:00:25.184Z,23.47
2018-06-27T08:02:18.214Z,23.32
2018-06-27T08:03:18.238Z,23.33
2018-06-27T08:05:11.285Z,23.54
2018-06-27T08:06:11.294Z,23.60
2018-06-27T08:08:04.359Z,23.65
2018-06-27T08:09:04.351Z,23.61
2018-06-27T08:10:57.278Z,23.58
2018-06-27T08:11:57.305Z,23.58
2018-06-27T08:13:50.353Z,23.63
2018-06-27T08:14:50.364Z,23.73
2018-06-27T08:16:43.800Z,23.76
2018-06-27T08:17:43.850Z,23.65
2018-06-27T08:19:36.877Z,23.75
2018-06-27T08:20:36.887Z,23.68
2018-06-27T08:22:30.322Z,23.79
2018-06-27T08:23:30.349Z,23.79
2018-06-27T08:25:23.397Z,23.84
2018-06-27T08:26:23.581Z,23.78
2018-06-27T08:28:16.435Z,23.73
2018-06-27T08:29:16.463Z,23.76
2018-06-27T08:31:09.512Z,23.73
2018-06-27T08:32:09.522Z,23.78
2018-06-27T08:34:02.976Z,23.76
2018-06-27T08:35:02.983Z,23.76
2018-06-27T08:36:56.015Z,23.72
2018-06-27T08:37:56.044Z,23.68
2018-06-27T08:39:49.092Z,23.60
2018-06-27T08:40:49.102Z,23.60
2018-06-27T08:42:42.128Z,23.53
2018-06-27T08:43:42.196Z,23.47
2018-06-27T08:45:35.203Z,23.57
2018-06-27T08:46:35.212Z,23.68
2018-06-27T08:48:28.241Z,23.78
2018-06-27T08:49:28.285Z,23.76
2018-06-27T08:51:21.383Z,23.76
2018-06-27T08:52:21.325Z,23.73
2018-06-27T08:54:14.369Z,23.63
2018-06-27T08:55:14.381Z,23.68
2018-06-27T08:57:07.409Z,23.61
2018-06-27T08:58:07.436Z,23.58
2018-06-27T09:00:00.483Z,23.69
2018-06-27T09:01:00.570Z,23.70
2018-06-27T09:02:53.453Z,23.76
2018-06-27T09:03:53.480Z,23.83
2018-06-27T09:05:46.500Z,23.98
2018-06-27T09:06:46.511Z,24.03
2018-06-27T09:08:39.533Z,24.03
2018-06-27T09:09:39.562Z,24.09
2018-06-27T09:11:32.609Z,24.05
2018-06-27T09:12:32.624Z,23.95
2018-06-27T09:14:25.666Z,24.02
2018-06-27T09:15:25.678Z,24.20
2018-06-27T09:17:18.704Z,24.18
2018-06-27T09:18:18.734Z,24.20
2018-06-27T09:20:11.779Z,24.32
2018-06-27T09:21:11.789Z,24.34
2018-06-27T09:23:04.817Z,24.35
2018-06-27T09:24:04.845Z,24.39
2018-06-27T09:25:57.893Z,24.18
2018-06-27T09:26:57.903Z,24.09
2018-06-27T09:28:50.829Z,24.10
2018-06-27T09:29:50.858Z,24.24
2018-06-27T09:31:43.903Z,24.25
2018-06-27T09:32:43.916Z,24.39
2018-06-27T09:34:37.350Z,24.52
2018-06-27T09:35:37.376Z,24.55
2018-06-27T09:37:30.430Z,24.50
2018-06-27T09:38:30.436Z,24.57
2018-06-27T09:40:23.481Z,24.49
2018-06-27T09:41:23.491Z,24.60
2018-06-27T09:43:16.520Z,24.55
2018-06-27T09:44:16.549Z,24.47
2018-06-27T09:46:09.594Z,24.61
2018-06-27T09:47:09.605Z,24.69
2018-06-27T09:49:02.531Z,24.91
2018-06-27T09:50:02.562Z,24.90
2018-06-27T09:51:55.508Z,24.95
2018-06-27T09:52:55.515Z,24.81
2018-06-27T09:54:49.440Z,24.77
2018-06-27T09:55:49.473Z,24.77
2018-06-27T09:57:42.418Z,24.81
2018-06-27T09:58:42.427Z,24.71
2018-06-27T10:00:35.381Z,24.85
2018-06-27T10:01:35.384Z,24.77
2018-06-27T10:03:28.309Z,24.90
2018-06-27T10:04:28.336Z,24.87
2018-06-27T10:06:21.290Z,24.87
2018-06-27T10:07:21.289Z,24.90
2018-06-27T10:09:14.256Z,24.91
2018-06-27T10:10:14.244Z,24.91
2018-06-27T10:12:07.194Z,24.84
2018-06-27T10:13:07.199Z,24.83
2018-06-27T10:15:00.125Z,24.85
2018-06-27T10:16:00.150Z,24.69
2018-06-27T10:17:54.588Z,24.73
2018-06-27T10:18:54.597Z,24.68
2018-06-27T10:20:47.540Z,24.84
2018-06-27T10:21:47.552Z,24.81
2018-06-27T10:23:40.476Z,24.90
2018-06-27T10:24:40.538Z,24.90
2018-06-27T10:26:33.447Z,24.95
2018-06-27T10:27:33.458Z,25.02
2018-06-27T10:29:26.392Z,25.08
2018-06-27T10:30:26.420Z,24.88
2018-06-27T10:32:19.362Z,24.90
2018-06-27T10:33:19.373Z,24.88
2018-06-27T10:35:12.297Z,24.88
2018-06-27T10:36:12.338Z,24.73
2018-06-27T10:38:05.306Z,24.78
2018-06-27T10:39:05.277Z,24.68
2018-06-27T10:40:58.228Z,24.65
2018-06-27T10:41:58.230Z,24.55
2018-06-27T10:43:51.153Z,24.65
2018-06-27T10:44:51.182Z,24.69
2018-06-27T10:46:44.124Z,24.76
2018-06-27T10:47:44.136Z,24.76
2018-06-27T10:49:37.064Z,24.81
2018-06-27T10:50:37.093Z,24.91
2018-06-27T10:52:30.043Z,24.78
2018-06-27T10:53:30.049Z,24.85
2018-06-27T10:55:22.972Z,24.73
2018-06-27T10:56:22.998Z,24.76
2018-06-27T10:58:15.943Z,24.81
2018-06-27T10:59:15.954Z,24.95
2018-06-27T11:01:08.891Z,24.91
2018-06-27T11:02:08.906Z,24.93
2018-06-27T11:04:01.854Z,25.06
2018-06-27T11:05:01.861Z,25.06
2018-06-27T11:06:54.803Z,25.06
2018-06-27T11:07:54.813Z,25.02
2018-06-27T11:09:47.739Z,24.76
2018-06-27T11:10:47.765Z,24.83
2018-06-27T11:12:40.714Z,24.93
2018-06-27T11:13:40.719Z,25.03
2018-06-27T11:15:33.640Z,25.08
2018-06-27T11:16:33.669Z,25.05
2018-06-27T11:18:26.612Z,25.05
2018-06-27T11:19:26.621Z,25.08
2018-06-27T11:21:19.547Z,25.14
2018-06-27T11:22:19.575Z,25.20
2018-06-27T11:24:12.524Z,25.10
2018-06-27T11:25:12.529Z,25.10
2018-06-27T11:27:05.969Z,25.09
2018-06-27T11:28:05.997Z,25.20
2018-06-27T11:29:59.436Z,25.18
2018-06-27T11:30:59.443Z,25.15
2018-06-27T11:32:52.495Z,25.17
2018-06-27T11:33:52.395Z,25.06
2018-06-27T11:35:45.322Z,25.18
2018-06-27T11:36:45.351Z,25.32
2018-06-27T11:38:38.384Z,25.28
2018-06-27T11:39:38.304Z,25.39
2018-06-27T11:41:31.233Z,25.38
2018-06-27T11:42:31.263Z,25.38
2018-06-27T11:44:24.291Z,25.30
2018-06-27T11:45:24.218Z,25.27
2018-06-27T11:47:17.142Z,25.27
2018-06-27T11:48:17.168Z,25.32
2018-06-27T11:50:10.119Z,25.28
2018-06-27T11:51:10.126Z,25.40
2018-06-27T11:53:03.075Z,25.30
2018-06-27T11:54:03.083Z,25.32
2018-06-27T11:55:56.005Z,25.33
2018-06-27T11:56:56.033Z,25.30
2018-06-27T11:58:48.982Z,25.17
2018-06-27T11:59:48.992Z,25.21
2018-06-27T12:01:41.918Z,25.33
2018-06-27T12:02:41.948Z,25.36
2018-06-27T12:04:34.886Z,25.30
2018-06-27T12:05:34.898Z,25.25
2018-06-27T12:07:27.824Z,25.38
2018-06-27T12:08:27.864Z,25.33
2018-06-27T12:10:20.796Z,25.55
2018-06-27T12:11:20.804Z,25.55
2018-06-27T12:13:13.732Z,25.62
2018-06-27T12:14:13.759Z,25.70
2018-06-27T12:16:06.710Z,25.64
2018-06-27T12:17:06.719Z,25.72
2018-06-27T12:18:59.669Z,25.77
2018-06-27T12:19:59.673Z,25.70
2018-06-27T12:21:53.096Z,25.61
2018-06-27T12:22:53.126Z,25.70
2018-06-27T12:24:46.075Z,25.97
2018-06-27T12:25:46.088Z,26.06
2018-06-27T12:27:39.009Z,25.94
2018-06-27T12:28:39.039Z,25.87
2018-06-27T12:30:31.990Z,25.67
2018-06-27T12:31:31.994Z,25.65
2018-06-27T12:33:24.922Z,25.72
2018-06-27T12:34:24.953Z,25.73
2018-06-27T12:36:17.896Z,25.76
2018-06-27T12:37:17.906Z,25.73
2018-06-27T12:39:10.856Z,25.82
2018-06-27T12:40:10.863Z,25.79
2018-06-27T12:42:03.787Z,25.87
2018-06-27T12:43:03.821Z,25.91
2018-06-27T12:44:56.765Z,25.88
2018-06-27T12:45:56.771Z,25.95
2018-06-27T12:47:51.203Z,26.09
2018-06-27T12:48:51.232Z,26.07
2018-06-27T12:50:44.178Z,26.36
2018-06-27T12:51:44.188Z,26.26
2018-06-27T12:53:37.143Z,26.37
2018-06-27T12:54:37.148Z,26.40
2018-06-27T12:56:30.090Z,26.47
2018-06-27T12:57:30.097Z,26.66
2018-06-27T12:59:23.026Z,26.72
2018-06-27T13:00:23.120Z,26.66
2018-06-27T13:02:16.007Z,26.85
2018-06-27T13:03:16.069Z,26.80
2018-06-27T13:05:08.971Z,26.62
2018-06-27T13:06:08.975Z,26.57
2018-06-27T13:08:01.900Z,26.47
2018-06-27T13:09:02.039Z,26.52
2018-06-27T13:10:55.374Z,26.60
2018-06-27T13:11:55.383Z,26.77
2018-06-27T13:13:48.311Z,26.85
2018-06-27T13:14:48.339Z,26.85
2018-06-27T13:16:41.289Z,26.95
2018-06-27T13:17:41.299Z,26.97
2018-06-27T13:19:35.230Z,27.04
2018-06-27T13:20:35.262Z,27.03
2018-06-27T13:22:28.212Z,26.94
2018-06-27T13:23:28.219Z,27.00
2018-06-27T13:25:21.173Z,27.07
2018-06-27T13:26:21.178Z,27.13
2018-06-27T13:28:14.107Z,27.13
2018-06-27T13:29:14.139Z,27.04
2018-06-27T13:31:07.089Z,27.03
2018-06-27T13:32:07.096Z,27.04
2018-06-27T13:34:00.029Z,26.80
2018-06-27T13:35:00.126Z,26.73
2018-06-27T13:36:53.003Z,26.47
2018-06-27T13:37:53.010Z,26.43
2018-06-27T13:39:45.936Z,26.58
2018-06-27T13:40:45.964Z,26.63
2018-06-27T13:42:38.910Z,26.63
2018-06-27T13:43:38.921Z,26.66
2018-06-27T13:45:31.849Z,26.82
2018-06-27T13:46:31.880Z,26.81
2018-06-27T13:48:24.833Z,26.92
2018-06-27T13:49:24.842Z,27.02
2018-06-27T13:51:17.793Z,26.94
2018-06-27T13:52:17.797Z,26.85
2018-06-27T13:54:10.727Z,26.82
2018-06-27T13:55:10.754Z,26.87
2018-06-27T13:57:03.710Z,26.94
2018-06-27T13:58:03.718Z,27.07
2018-06-27T13:59:56.658Z,27.02
2018-06-27T14:00:56.681Z,26.92
2018-06-27T14:02:49.632Z,26.80
2018-06-27T14:03:49.642Z,26.88
2018-06-27T14:05:42.568Z,27.02
2018-06-27T14:06:42.597Z,27.10
2018-06-27T14:08:35.540Z,27.24
2018-06-27T14:09:35.552Z,27.34
2018-06-27T14:11:28.482Z,27.54
2018-06-27T14:12:28.513Z,27.62
2018-06-27T14:14:21.953Z,27.81
2018-06-27T14:15:21.966Z,27.85
2018-06-27T14:17:15.403Z,27.96
2018-06-27T14:18:15.416Z,27.97
2018-06-27T14:20:08.343Z,27.70
2018-06-27T14:21:08.373Z,27.54
2018-06-27T14:23:01.324Z,27.66
2018-06-27T14:24:01.353Z,27.60
2018-06-27T14:25:54.262Z,27.57
2018-06-27T14:26:54.294Z,27.44
2018-06-27T14:28:47.256Z,27.40
2018-06-27T14:29:47.260Z,27.37
2018-06-27T14:31:40.682Z,27.29
2018-06-27T14:32:40.715Z,27.22
2018-06-27T14:34:33.657Z,27.36
2018-06-27T14:35:33.670Z,27.43
2018-06-27T14:37:26.614Z,27.29
2018-06-27T14:38:26.689Z,27.36
2018-06-27T14:40:19.600Z,27.34
2018-06-27T14:41:19.634Z,27.36
2018-06-27T14:43:12.673Z,27.40
2018-06-27T14:44:12.686Z,27.39
2018-06-27T14:46:05.714Z,27.34
2018-06-27T14:47:05.742Z,27.40
2018-06-27T14:48:58.787Z,27.32
2018-06-27T14:49:58.812Z,27.29
2018-06-27T14:51:51.828Z,27.31
2018-06-27T14:52:51.859Z,27.21
2018-06-27T14:54:44.899Z,27.19
2018-06-27T14:55:44.911Z,27.22
2018-06-27T14:57:37.940Z,27.27
2018-06-27T14:58:37.971Z,27.27
2018-06-27T15:00:31.013Z,27.17
2018-06-27T15:01:31.026Z,27.25
2018-06-27T15:03:24.073Z,27.41
2018-06-27T15:04:24.080Z,27.37
2018-06-27T15:06:17.108Z,27.50
2018-06-27T15:07:17.141Z,27.46
2018-06-27T15:09:15.101Z,27.62
2018-06-27T15:10:15.113Z,27.69
2018-06-27T15:12:08.138Z,27.84
2018-06-27T15:13:08.168Z,27.97
2018-06-27T15:15:01.215Z,28.02
2018-06-27T15:16:01.225Z,27.93
2018-06-27T15:17:54.250Z,27.67
2018-06-27T15:18:54.280Z,27.65
2018-06-27T15:20:47.326Z,27.54
2018-06-27T15:21:47.339Z,27.55
2018-06-27T15:23:40.606Z,27.57
2018-06-27T15:24:40.394Z,27.47
2018-06-27T15:26:33.420Z,27.37
2018-06-27T15:27:33.450Z,27.34
2018-06-27T15:29:36.401Z,27.37
2018-06-27T15:30:36.408Z,27.43
2018-06-27T15:32:29.338Z,27.39
2018-06-27T15:33:29.369Z,27.37
2018-06-27T15:35:22.337Z,27.49
2018-06-27T15:36:22.325Z,27.50
2018-06-27T15:38:15.247Z,27.43
2018-06-27T15:39:15.277Z,27.49
2018-06-27T15:41:08.221Z,27.41
2018-06-27T15:42:08.230Z,27.41
2018-06-27T15:44:01.205Z,27.34
2018-06-27T15:45:01.183Z,27.37
2018-06-27T15:46:54.109Z,27.31
2018-06-27T15:47:54.137Z,27.39
2018-06-27T15:49:47.081Z,27.28
2018-06-27T15:50:47.087Z,27.40
2018-06-27T15:52:40.015Z,27.47
2018-06-27T15:53:40.044Z,27.47
2018-06-27T15:55:32.988Z,27.51
2018-06-27T15:56:32.995Z,27.50
2018-06-27T15:58:25.921Z,27.57
2018-06-27T15:59:25.949Z,27.66
2018-06-27T16:01:18.894Z,27.65
2018-06-27T16:02:18.902Z,27.59
2018-06-27T16:04:11.827Z,27.29
2018-06-27T16:05:11.909Z,27.24
2018-06-27T16:07:04.803Z,27.27
2018-06-27T16:08:04.810Z,27.31
2018-06-27T16:09:57.763Z,27.44
2018-06-27T16:10:57.764Z,27.46
2018-06-27T16:12:50.692Z,27.62
2018-06-27T16:13:50.717Z,27.65
2018-06-27T16:15:43.665Z,27.66
2018-06-27T16:16:43.804Z,27.67
2018-06-27T16:18:36.598Z,27.65
2018-06-27T16:19:36.627Z,27.72
2018-06-27T16:21:29.573Z,27.66
2018-06-27T16:22:29.583Z,27.59
2018-06-27T16:24:22.507Z,27.65
2018-06-27T16:25:22.535Z,27.69
2018-06-27T16:27:15.481Z,27.85
2018-06-27T16:28:15.488Z,27.82
2018-06-27T16:30:08.433Z,27.74
2018-06-27T16:31:08.444Z,27.69
2018-06-27T16:33:01.388Z,27.50
2018-06-27T16:34:01.395Z,27.31
2018-06-27T16:35:54.349Z,27.17
2018-06-27T16:39:40.141Z,27.31
2018-06-27T16:40:40.146Z,27.44
2018-06-27T16:42:33.098Z,27.55
2018-06-27T16:43:33.241Z,27.57
2018-06-27T16:45:26.029Z,27.47
2018-06-27T16:46:26.134Z,27.39
2018-06-27T16:48:18.998Z,27.50
2018-06-27T16:49:19.005Z,27.50
2018-06-27T16:51:12.128Z,27.49
2018-06-27T16:52:11.998Z,27.54
2018-06-27T16:54:04.892Z,27.40
2018-06-27T16:55:04.907Z,27.40
2018-06-27T16:56:57.848Z,27.36
2018-06-27T16:57:57.878Z,27.46
2018-06-27T16:59:50.776Z,27.28
2018-06-27T17:00:50.848Z,27.28
2018-06-27T17:02:43.770Z,27.34
2018-06-27T17:03:43.755Z,27.21
2018-06-27T17:05:36.679Z,27.31
2018-06-27T17:06:36.706Z,27.44
2018-06-27T17:08:29.655Z,27.37
2018-06-27T17:09:29.657Z,27.37
2018-06-27T17:11:22.578Z,27.31
2018-06-27T17:12:22.643Z,27.36
2018-06-27T17:14:15.549Z,27.41
2018-06-27T17:15:15.559Z,27.47
2018-06-27T17:17:08.565Z,27.49
2018-06-27T17:18:08.629Z,27.57
2018-06-27T17:20:01.466Z,27.63
2018-06-27T17:21:01.550Z,27.65
2018-06-27T17:22:55.257Z,27.60
2018-06-27T17:23:55.366Z,27.51
2018-06-27T17:25:47.652Z,27.32
2018-06-27T17:26:47.681Z,27.37
2018-06-27T17:28:40.622Z,27.39
2018-06-27T17:29:40.633Z,27.39
2018-06-27T17:31:33.593Z,27.25
2018-06-27T17:32:33.593Z,27.22
2018-06-27T17:34:26.536Z,27.27
2018-06-27T17:35:26.543Z,27.19
2018-06-27T17:37:19.469Z,27.29
2018-06-27T17:38:19.497Z,27.09
2018-06-27T17:40:12.445Z,27.14
2018-06-27T17:41:12.448Z,27.19
2018-06-27T17:43:05.398Z,27.19
2018-06-27T17:44:05.397Z,27.13
2018-06-27T17:45:58.317Z,27.24
2018-06-27T17:46:58.344Z,27.28
2018-06-27T17:48:51.288Z,27.43
2018-06-27T17:49:51.297Z,27.50
2018-06-27T17:51:44.223Z,27.85
2018-06-27T17:52:44.252Z,28.07
2018-06-27T17:54:37.213Z,28.48
2018-06-27T17:55:37.208Z,28.61
2018-06-27T17:57:30.161Z,28.86
2018-06-27T17:58:30.160Z,28.88
2018-06-27T18:00:23.113Z,28.77
2018-06-27T18:01:23.120Z,28.62
2018-06-27T18:03:16.042Z,28.52
2018-06-27T18:04:16.074Z,28.36
2018-06-27T18:06:09.025Z,28.09
2018-06-27T18:07:09.034Z,28.06
2018-06-27T18:09:01.971Z,27.69
2018-06-27T18:10:01.983Z,27.69
2018-06-27T18:11:54.941Z,27.81
2018-06-27T18:12:55.029Z,27.93
2018-06-27T18:14:47.950Z,28.27
2018-06-27T18:15:47.927Z,28.34
2018-06-27T18:17:40.863Z,28.31
2018-06-27T18:18:40.878Z,28.34
2018-06-27T18:20:33.833Z,28.22
2018-06-27T18:21:33.845Z,28.17
2018-06-27T18:23:26.771Z,28.17
2018-06-27T18:24:26.798Z,28.15
2018-06-27T18:26:23.538Z,28.00
2018-06-27T18:27:23.589Z,27.97
2018-06-27T18:29:16.471Z,27.93
2018-06-27T18:30:16.500Z,27.81
2018-06-27T18:32:09.457Z,27.82
2018-06-27T18:33:09.494Z,28.04
2018-06-27T18:35:02.413Z,28.14
2018-06-27T18:36:02.425Z,28.14